Impacts TAF Board INFO
FOR SITUATIONAL AWARENESS. NOT TO BE USED FOR FLIGHT PLANNING PURPOSES.
IDs:

KMIA - Miami Intl, FL, US

Issued at 0531 UTC 15 Dec 2017
Updated at 0806 UTC 15 Dec 2017
Potential Impact None Slight Moderate High
Time<<16/09Z 16/10Z 16/11Z 16/12Z 16/13Z 16/14Z 16/15Z 16/16Z 16/17Z 16/18Z 16/19Z 16/20Z 16/21Z
Type PRVL PRVL PRVL
VIS >6 >6 >6
CIG -- -- --
Cover SKC SKC SKC
FltCat VFR VFR VFR
WX -- -- --
WDir VRB VRB VRB
WSpd 3 3 3
WGst -- -- --

Raw TAF
KMIA 150531Z 1506/1612 VRB03KT P6SM SKC
  FM151500 15005KT P6SM SKC
  FM160000 VRB03KT P6SM SKC


METAR Board
Radar Display
Forecast Discussion

FOR SITUATIONAL AWARENESS. NOT TO BE USED FOR FLIGHT PLANNING PURPOSES.